Time;durP1;ratioP1;P1;durP2;ratioP2;P2;SDS_P1;SDS_P2;PMS_P1;PMS_P2;Temp;Humidity;BMP_temperature;BMP_pressure;BME280_temperature;BME280_humidity;BME280_pressure;Samples;Min_cycle;Max_cycle;Signal;HPM_P1;HPM_P2
2022/01/28 00:00:07;;;;;;;5.10;1.05;;;;;11.50;102751.00;;;;5046969;28;20203;-79
2022/01/28 00:02:52;;;;;;;6.07;1.40;;;;;11.50;102761.00;;;;5028955;28;20436;-80
2022/01/28 00:05:22;;;;;;;3.88;0.85;;;;;11.40;102764.00;;;;5027911;28;20212;-79
2022/01/28 00:07:51;;;;;;;5.00;1.50;;;;;11.50;102769.00;;;;5028450;28;20212;-79
2022/01/28 00:10:19;;;;;;;3.90;0.70;;;;;11.40;102779.00;;;;5028264;28;20200;-80
2022/01/28 00:37:36;;;;;;;4.97;0.70;;;;;11.30;102788.00;;;;5042271;28;20222;-79
2022/01/28 00:40:04;;;;;;;4.22;0.85;;;;;11.30;102796.00;;;;5030825;28;20220;-80
2022/01/28 00:42:33;;;;;;;2.65;0.80;;;;;11.30;102799.00;;;;5034951;28;20196;-79
2022/01/28 00:45:01;;;;;;;3.67;0.57;;;;;11.30;102808.00;;;;5040444;28;20195;-79
2022/01/28 00:47:28;;;;;;;9.13;1.20;;;;;11.30;102808.00;;;;5036558;28;20581;-80
2022/01/28 00:49:56;;;;;;;3.38;0.85;;;;;11.30;102801.00;;;;5047681;28;20196;-80
2022/01/28 00:52:23;;;;;;;3.78;0.52;;;;;11.30;102793.00;;;;5037950;28;20676;-79
2022/01/28 00:54:50;;;;;;;5.45;0.70;;;;;11.30;102801.00;;;;5048260;28;20219;-80
2022/01/28 00:57:18;;;;;;;3.58;0.80;;;;;11.30;102807.00;;;;5048374;28;20196;-80
2022/01/28 00:59:46;;;;;;;10.30;1.05;;;;;11.30;102803.00;;;;5050086;28;20200;-79
2022/01/28 01:02:14;;;;;;;8.82;1.05;;;;;11.30;102793.00;;;;5047003;28;20214;-80
2022/01/28 01:04:41;;;;;;;2.50;0.73;;;;;11.30;102797.00;;;;5033389;28;20192;-78
2022/01/28 01:07:09;;;;;;;5.22;0.70;;;;;11.30;102795.00;;;;5040655;28;20231;-80
2022/01/28 01:09:36;;;;;;;5.45;1.50;;;;;11.30;102793.00;;;;5046232;28;22235;-80
2022/01/28 01:12:04;;;;;;;5.30;0.52;;;;;11.30;102794.00;;;;5031887;28;20207;-79
2022/01/28 01:14:32;;;;;;;3.22;0.73;;;;;11.30;102799.00;;;;5031034;28;20224;-80
2022/01/28 01:17:13;;;;;;;4.78;0.93;;;;;11.30;102795.00;;;;5037361;28;20729;-80
2022/01/28 01:19:45;;;;;;;3.78;0.90;;;;;11.30;102802.00;;;;5048434;28;21006;-80
2022/01/28 01:22:13;;;;;;;3.35;0.88;;;;;11.30;102798.00;;;;5049584;28;20654;-80
2022/01/28 01:24:49;;;;;;;5.15;0.73;;;;;11.30;102791.00;;;;5051120;28;20205;-80
2022/01/28 01:27:17;;;;;;;2.92;1.05;;;;;11.30;102800.00;;;;5042358;28;20266;-80
2022/01/28 01:29:46;;;;;;;2.45;0.70;;;;;11.30;102804.00;;;;5050819;28;20199;-79
2022/01/28 01:32:17;;;;;;;5.22;1.45;;;;;11.30;102800.00;;;;5049295;28;20216;-80
2022/01/28 01:34:45;;;;;;;4.13;1.08;;;;;11.30;102805.00;;;;5049931;28;20322;-79
2022/01/28 01:37:13;;;;;;;4.13;0.80;;;;;11.30;102803.00;;;;5042015;28;20188;-80
2022/01/28 01:39:42;;;;;;;4.05;0.63;;;;;11.30;102812.00;;;;5032261;28;20315;-80
2022/01/28 01:42:19;;;;;;;5.43;0.80;;;;;11.30;102821.00;;;;5035890;28;20191;-80
2022/01/28 01:45:26;;;;;;;7.60;0.88;;;;;11.30;102826.00;;;;5036584;28;20270;-80
2022/01/28 01:53:17;;;;;;;5.72;0.80;;;;;11.40;102850.00;;;;5041303;28;20206;-80
2022/01/28 01:55:44;;;;;;;6.15;1.10;;;;;11.40;102852.00;;;;5050444;28;20226;-80
2022/01/28 01:58:11;;;;;;;5.25;1.13;;;;;11.40;102860.00;;;;5038015;28;20192;-80
2022/01/28 02:00:38;;;;;;;5.10;0.85;;;;;11.40;102866.00;;;;5030905;28;20248;-80
2022/01/28 02:03:07;;;;;;;5.65;1.02;;;;;11.40;102869.00;;;;5033668;28;20188;-80
2022/01/28 02:05:34;;;;;;;4.93;0.70;;;;;11.50;102870.00;;;;5037631;28;20201;-80
2022/01/28 02:08:06;;;;;;;2.65;0.47;;;;;11.50;102874.00;;;;5035544;28;20200;-80
2022/01/28 02:10:34;;;;;;;3.53;0.50;;;;;11.50;102871.00;;;;5043802;28;20199;-80
2022/01/28 02:13:01;;;;;;;2.92;0.50;;;;;11.50;102878.00;;;;5033835;28;20262;-79
2022/01/28 02:15:29;;;;;;;2.78;0.50;;;;;11.60;102885.00;;;;5028964;28;20622;-79
2022/01/28 02:17:58;;;;;;;3.80;0.68;;;;;11.60;102885.00;;;;5037191;28;20207;-79
2022/01/28 02:20:31;;;;;;;4.10;0.32;;;;;11.60;102875.00;;;;5047896;28;20195;-79
2022/01/28 02:22:59;;;;;;;4.07;0.70;;;;;11.60;102883.00;;;;5036561;28;20228;-80
2022/01/28 02:25:28;;;;;;;2.53;0.50;;;;;11.60;102885.00;;;;5048738;28;20697;-79
2022/01/28 02:27:56;;;;;;;5.65;0.80;;;;;11.60;102888.00;;;;5045860;28;20210;-80
2022/01/28 02:30:24;;;;;;;3.53;1.02;;;;;11.60;102890.00;;;;5048617;28;20310;-79
2022/01/28 02:32:57;;;;;;;1.63;0.55;;;;;11.60;102885.00;;;;5039398;28;20200;-79
2022/01/28 02:35:25;;;;;;;5.65;0.70;;;;;11.60;102895.00;;;;5039090;28;20229;-79
2022/01/28 02:37:52;;;;;;;4.55;0.98;;;;;11.60;102897.00;;;;5031204;28;20200;-80
2022/01/28 02:40:20;;;;;;;2.13;0.60;;;;;11.60;102904.00;;;;5029005;28;20192;-79
2022/01/28 02:42:59;;;;;;;2.53;0.60;;;;;11.60;102904.00;;;;5029714;28;20196;-80
2022/01/28 02:45:31;;;;;;;6.57;0.90;;;;;11.60;102909.00;;;;5028583;28;20631;-79
2022/01/28 02:48:02;;;;;;;7.32;0.85;;;;;11.60;102917.00;;;;5028143;28;20209;-79
2022/01/28 02:50:38;;;;;;;5.25;1.13;;;;;11.60;102915.00;;;;5031652;28;20187;-80
2022/01/28 02:53:08;;;;;;;3.67;0.70;;;;;11.60;102911.00;;;;5041461;28;20206;-80
2022/01/28 02:55:39;;;;;;;5.78;0.80;;;;;11.60;102910.00;;;;5032674;28;20251;-79
2022/01/28 02:58:20;;;;;;;4.88;0.63;;;;;11.60;102915.00;;;;5029153;28;20200;-79
2022/01/28 03:00:48;;;;;;;4.28;0.75;;;;;11.60;102926.00;;;;5047403;28;20590;-80
2022/01/28 03:03:19;;;;;;;7.05;1.05;;;;;11.60;102931.00;;;;5032534;28;20196;-79
2022/01/28 03:05:47;;;;;;;7.40;0.70;;;;;11.60;102932.00;;;;5032791;28;20200;-79
2022/01/28 03:08:15;;;;;;;6.93;0.73;;;;;11.60;102933.00;;;;5031047;28;20217;-79
2022/01/28 03:10:49;;;;;;;4.95;0.75;;;;;11.60;102930.00;;;;5033076;28;20207;-79
2022/01/28 03:13:33;;;;;;;3.83;0.70;;;;;11.60;102928.00;;;;5037639;28;20207;-80
2022/01/28 03:16:10;;;;;;;8.27;1.38;;;;;11.60;102933.00;;;;5029891;28;20263;-80
2022/01/28 03:21:41;;;;;;;3.22;0.57;;;;;11.50;102934.00;;;;5029829;28;20355;-79
2022/01/28 03:24:09;;;;;;;3.90;0.60;;;;;11.50;102937.00;;;;5029254;28;20298;-79
2022/01/28 03:26:37;;;;;;;3.67;0.70;;;;;11.50;102938.00;;;;5039044;28;20238;-79
2022/01/28 03:29:05;;;;;;;4.72;0.80;;;;;11.50;102944.00;;;;5046675;28;20207;-80
2022/01/28 03:31:32;;;;;;;2.70;0.43;;;;;11.50;102939.00;;;;5047174;28;20670;-79
2022/01/28 03:34:00;;;;;;;5.47;0.88;;;;;11.50;102943.00;;;;5030951;28;20795;-80
2022/01/28 03:36:28;;;;;;;1.65;0.65;;;;;11.50;102946.00;;;;5028822;28;20219;-79
2022/01/28 03:38:56;;;;;;;2.67;0.43;;;;;11.50;102941.00;;;;5033634;28;20231;-80
2022/01/28 03:41:24;;;;;;;3.38;0.80;;;;;11.50;102949.00;;;;5028090;28;20203;-80
2022/01/28 03:43:57;;;;;;;8.55;1.02;;;;;11.50;102943.00;;;;5028548;28;20723;-79
2022/01/28 03:46:25;;;;;;;2.35;0.77;;;;;11.50;102954.00;;;;5032745;28;20692;-79
2022/01/28 03:48:53;;;;;;;3.33;0.88;;;;;11.40;102957.00;;;;5047335;28;20196;-79
2022/01/28 03:51:21;;;;;;;1.58;0.55;;;;;11.40;102965.00;;;;5037778;28;20200;-80
2022/01/28 03:53:50;;;;;;;4.50;0.60;;;;;11.40;102951.00;;;;5027286;28;20188;-79
2022/01/28 03:56:18;;;;;;;3.13;0.63;;;;;11.40;102951.00;;;;5031756;28;20220;-79
2022/01/28 03:58:45;;;;;;;2.90;0.68;;;;;11.40;102949.00;;;;5040444;28;20198;-79
2022/01/28 04:01:17;;;;;;;3.70;0.70;;;;;11.40;102938.00;;;;5041457;28;20223;-80
2022/01/28 04:04:00;;;;;;;4.50;0.80;;;;;11.40;102952.00;;;;5046364;28;20203;-79
2022/01/28 04:11:57;;;;;;;4.45;0.70;;;;;11.30;102955.00;;;;5042090;28;20215;-79
2022/01/28 04:14:38;;;;;;;4.97;0.93;;;;;11.30;102953.00;;;;5038255;28;20210;-79
2022/01/28 04:17:23;;;;;;;2.85;0.60;;;;;11.30;102956.00;;;;5042844;28;20200;-79
2022/01/28 04:19:52;;;;;;;4.78;0.65;;;;;11.20;102965.00;;;;5031202;28;20205;-79
2022/01/28 04:22:20;;;;;;;5.15;0.50;;;;;11.20;102970.00;;;;5030641;28;20239;-79
2022/01/28 04:24:49;;;;;;;6.25;0.77;;;;;11.20;102971.00;;;;5031138;28;20212;-79
2022/01/28 04:27:17;;;;;;;8.98;0.75;;;;;11.20;102972.00;;;;5030692;28;20574;-79
2022/01/28 04:29:44;;;;;;;3.22;0.43;;;;;11.20;102978.00;;;;5031252;28;20414;-79
2022/01/28 04:32:12;;;;;;;2.92;0.73;;;;;11.20;102970.00;;;;5031026;28;20204;-79
2022/01/28 04:34:39;;;;;;;3.92;0.52;;;;;11.10;102978.00;;;;5043162;28;20322;-79
2022/01/28 04:37:11;;;;;;;2.67;0.40;;;;;11.10;102984.00;;;;5050170;28;20187;-79
2022/01/28 04:39:46;;;;;;;2.95;0.73;;;;;11.10;102971.00;;;;5050343;28;20203;-79
2022/01/28 04:42:27;;;;;;;2.85;0.30;;;;;11.10;102967.00;;;;5040452;28;20192;-79
2022/01/28 04:45:02;;;;;;;1.83;0.52;;;;;11.10;102973.00;;;;5030635;28;20231;-79
2022/01/28 04:47:36;;;;;;;3.40;0.82;;;;;11.00;102977.00;;;;5031461;28;20188;-76
2022/01/28 04:50:12;;;;;;;2.58;0.45;;;;;11.00;102985.00;;;;5042736;28;20195;-79
2022/01/28 04:53:15;;;;;;;1.13;0.43;;;;;11.00;102978.00;;;;5031178;28;20204;-79
2022/01/28 04:55:56;;;;;;;3.38;0.47;;;;;11.00;102980.00;;;;5037267;28;20263;-79
2022/01/28 04:58:38;;;;;;;6.60;0.70;;;;;10.90;102992.00;;;;5038078;28;20216;-79
2022/01/28 05:01:28;;;;;;;7.40;0.98;;;;;10.90;102997.00;;;;5042902;28;20216;-79
2022/01/28 05:04:12;;;;;;;4.20;0.40;;;;;10.90;103002.00;;;;5037759;28;20195;-79
2022/01/28 05:07:07;;;;;;;8.82;0.70;;;;;10.90;103000.00;;;;5037979;28;20200;-79
2022/01/28 05:24:03;;;;;;;5.82;0.50;;;;;10.80;103014.00;;;;5050168;28;20226;-79
2022/01/28 05:26:32;;;;;;;3.92;1.10;;;;;10.80;103018.00;;;;5046663;28;20203;-79
2022/01/28 05:28:59;;;;;;;0.85;0.30;;;;;10.80;103020.00;;;;5044117;28;20667;-79
2022/01/28 05:31:28;;;;;;;3.03;0.60;;;;;10.80;103020.00;;;;5044549;28;20222;-79
2022/01/28 05:33:55;;;;;;;4.30;0.85;;;;;10.80;103026.00;;;;5043329;28;20195;-79
2022/01/28 05:36:23;;;;;;;4.65;1.20;;;;;10.80;103029.00;;;;5038745;28;20227;-79
2022/01/28 05:38:51;;;;;;;8.00;0.98;;;;;10.80;103030.00;;;;5044296;28;20192;-79
2022/01/28 05:41:19;;;;;;;2.78;0.68;;;;;10.80;103030.00;;;;5032772;28;20206;-80
2022/01/28 05:43:46;;;;;;;5.22;0.70;;;;;10.80;103029.00;;;;5045832;28;20196;-79
2022/01/28 05:46:13;;;;;;;6.13;1.25;;;;;10.80;103029.00;;;;5049006;28;20215;-79
2022/01/28 05:48:42;;;;;;;5.15;0.68;;;;;10.80;103033.00;;;;5048940;28;20188;-79
2022/01/28 05:51:11;;;;;;;3.00;0.43;;;;;10.80;103038.00;;;;5029475;28;20215;-79
2022/01/28 05:53:38;;;;;;;3.22;0.50;;;;;10.80;103036.00;;;;5029323;28;20200;-78
2022/01/28 05:56:06;;;;;;;3.63;0.70;;;;;10.80;103047.00;;;;5028969;28;20220;-79
2022/01/28 05:58:33;;;;;;;5.70;0.40;;;;;10.70;103047.00;;;;5030012;28;20211;-79
2022/01/28 06:01:00;;;;;;;2.83;0.75;;;;;10.70;103049.00;;;;5037556;28;20223;-79
2022/01/28 06:03:27;;;;;;;3.95;0.70;;;;;10.70;103053.00;;;;5045988;28;20192;-79
2022/01/28 06:05:56;;;;;;;3.60;0.57;;;;;10.70;103057.00;;;;5032801;28;20203;-79
2022/01/28 06:08:23;;;;;;;2.85;0.47;;;;;10.70;103054.00;;;;5048221;28;20204;-78
2022/01/28 06:10:51;;;;;;;4.05;0.70;;;;;10.70;103055.00;;;;5037579;28;20215;-78
2022/01/28 06:13:18;;;;;;;3.03;0.68;;;;;10.70;103069.00;;;;5050851;28;20196;-78
2022/01/28 06:15:45;;;;;;;5.35;0.50;;;;;10.60;103078.00;;;;5057931;28;20227;-78
2022/01/28 06:18:13;;;;;;;6.57;0.73;;;;;10.60;103083.00;;;;5059752;28;20195;-78
2022/01/28 06:20:41;;;;;;;2.78;0.85;;;;;10.60;103081.00;;;;5058045;28;20204;-78
2022/01/28 06:23:11;;;;;;;1.83;0.57;;;;;10.60;103093.00;;;;5062768;28;20220;-79
2022/01/28 06:25:39;;;;;;;2.97;0.98;;;;;10.50;103092.00;;;;5053053;28;20203;-79
2022/01/28 06:28:06;;;;;;;2.10;0.40;;;;;10.50;103097.00;;;;5043269;28;20766;-76
2022/01/28 06:30:34;;;;;;;9.68;1.33;;;;;10.50;103099.00;;;;5054194;28;20215;-77
2022/01/28 06:33:01;;;;;;;3.15;0.70;;;;;10.50;103106.00;;;;5051084;28;20207;-77
2022/01/28 06:35:28;;;;;;;3.42;0.38;;;;;10.50;103101.00;;;;5040905;28;20220;-77
2022/01/28 06:37:55;;;;;;;4.20;0.85;;;;;10.40;103116.00;;;;5041361;28;20201;-78
2022/01/28 06:40:24;;;;;;;2.08;0.45;;;;;10.40;103109.00;;;;5040265;28;20207;-78
2022/01/28 06:42:51;;;;;;;3.75;0.52;;;;;10.40;103111.00;;;;5048643;28;20566;-78
2022/01/28 06:45:18;;;;;;;3.22;0.77;;;;;10.40;103120.00;;;;5058431;28;20195;-78
2022/01/28 06:47:46;;;;;;;5.47;0.55;;;;;10.30;103124.00;;;;5050708;28;20195;-78
2022/01/28 06:50:13;;;;;;;5.40;0.50;;;;;10.30;103130.00;;;;5039623;28;20200;-78
2022/01/28 06:52:41;;;;;;;4.03;0.43;;;;;10.30;103131.00;;;;5030010;28;20199;-77
2022/01/28 06:55:10;;;;;;;10.02;0.73;;;;;10.30;103144.00;;;;5030866;28;20203;-77
2022/01/28 06:57:39;;;;;;;4.55;0.32;;;;;10.20;103151.00;;;;5046562;28;20834;-78
2022/01/28 07:00:08;;;;;;;2.75;0.60;;;;;10.20;103152.00;;;;5047244;28;20558;-78
2022/01/28 07:02:36;;;;;;;7.00;0.68;;;;;10.20;103158.00;;;;5047058;28;20246;-77
2022/01/28 07:05:04;;;;;;;1.65;0.50;;;;;10.10;103159.00;;;;5036722;28;20283;-77
2022/01/28 07:07:33;;;;;;;3.05;0.85;;;;;10.10;103148.00;;;;5036322;28;20200;-77
2022/01/28 07:10:01;;;;;;;3.03;0.93;;;;;10.10;103153.00;;;;5040124;28;20627;-78
2022/01/28 07:12:28;;;;;;;2.97;0.38;;;;;10.10;103148.00;;;;5048149;28;20249;-78
2022/01/28 07:14:57;;;;;;;2.70;0.47;;;;;10.00;103157.00;;;;5048230;28;20569;-78
2022/01/28 07:17:24;;;;;;;2.53;0.60;;;;;10.00;103155.00;;;;5037480;28;20228;-78
2022/01/28 07:19:51;;;;;;;4.35;0.45;;;;;10.00;103151.00;;;;5027014;28;20514;-77
2022/01/28 07:22:18;;;;;;;3.40;0.63;;;;;10.00;103164.00;;;;5033981;28;20203;-78
2022/01/28 07:24:46;;;;;;;3.25;0.70;;;;;9.90;103177.00;;;;5036658;28;20196;-78
2022/01/28 07:27:19;;;;;;;2.03;0.50;;;;;9.90;103179.00;;;;5026295;28;20200;-78
2022/01/28 07:29:50;;;;;;;2.33;0.40;;;;;9.90;103175.00;;;;5027224;28;20203;-78
2022/01/28 07:32:19;;;;;;;3.92;0.60;;;;;9.90;103180.00;;;;5043202;28;20394;-78
2022/01/28 07:34:46;;;;;;;3.95;1.02;;;;;9.90;103176.00;;;;5032007;28;20200;-77
2022/01/28 07:37:15;;;;;;;3.05;0.70;;;;;9.90;103184.00;;;;5032270;28;20650;-78
2022/01/28 07:39:42;;;;;;;6.43;1.00;;;;;9.80;103190.00;;;;5036319;28;20195;-78
2022/01/28 07:42:09;;;;;;;7.65;1.58;;;;;9.80;103186.00;;;;5042003;28;20188;-77
2022/01/28 07:44:36;;;;;;;6.28;1.65;;;;;9.80;103189.00;;;;5052109;28;20203;-78
2022/01/28 07:47:05;;;;;;;5.57;1.38;;;;;9.80;103197.00;;;;5034052;28;20212;-81
2022/01/28 07:49:34;;;;;;;3.45;0.90;;;;;9.80;103198.00;;;;5035875;28;20203;-79
2022/01/28 07:52:01;;;;;;;4.05;0.70;;;;;9.70;103195.00;;;;5049164;28;20685;-79
2022/01/28 07:54:28;;;;;;;2.72;1.15;;;;;9.70;103203.00;;;;5046241;28;20204;-80
2022/01/28 07:56:55;;;;;;;4.60;1.23;;;;;9.70;103202.00;;;;5037142;28;20216;-80
2022/01/28 07:59:23;;;;;;;2.15;0.70;;;;;9.70;103211.00;;;;5038200;28;20196;-80
2022/01/28 08:01:50;;;;;;;2.60;0.70;;;;;9.70;103222.00;;;;5038410;28;20298;-80
2022/01/28 08:04:17;;;;;;;4.63;0.88;;;;;9.70;103223.00;;;;5040841;28;20677;-80
2022/01/28 08:06:46;;;;;;;2.65;1.27;;;;;9.70;103227.00;;;;5032223;28;20195;-79
2022/01/28 08:09:13;;;;;;;4.00;0.77;;;;;9.60;103223.00;;;;5040147;28;20203;-80
2022/01/28 08:11:40;;;;;;;3.38;0.95;;;;;9.60;103224.00;;;;5045017;28;20192;-80
2022/01/28 08:14:08;;;;;;;4.38;1.00;;;;;9.60;103225.00;;;;5036973;28;20189;-81
2022/01/28 08:16:35;;;;;;;4.18;0.90;;;;;9.60;103237.00;;;;5046810;28;20226;-81
2022/01/28 08:19:03;;;;;;;1.58;0.82;;;;;9.60;103238.00;;;;5048068;28;20282;-81
2022/01/28 08:21:30;;;;;;;2.95;0.68;;;;;9.70;103241.00;;;;5044101;28;20196;-81
2022/01/28 08:23:59;;;;;;;5.68;1.17;;;;;9.70;103247.00;;;;5034380;28;20460;-82
2022/01/28 08:26:26;;;;;;;4.63;0.70;;;;;9.80;103254.00;;;;5043687;28;20196;-82
2022/01/28 08:28:54;;;;;;;3.20;0.80;;;;;9.90;103261.00;;;;5034050;28;20223;-79
2022/01/28 08:31:21;;;;;;;2.25;0.73;;;;;9.90;103255.00;;;;5034530;28;20206;-82
2022/01/28 08:33:48;;;;;;;3.53;0.88;;;;;10.00;103262.00;;;;5041299;28;20200;-82
2022/01/28 08:36:16;;;;;;;1.17;0.43;;;;;10.10;103266.00;;;;5044917;28;20231;-80
2022/01/28 08:38:46;;;;;;;4.03;0.85;;;;;10.20;103272.00;;;;5049998;28;20199;-81
2022/01/28 08:41:15;;;;;;;6.22;0.63;;;;;10.30;103276.00;;;;5044381;28;20192;-81
2022/01/28 08:43:43;;;;;;;2.13;0.85;;;;;10.30;103277.00;;;;5042903;28;20288;-81
2022/01/28 08:46:10;;;;;;;1.45;0.40;;;;;10.40;103292.00;;;;5040398;28;20709;-82
2022/01/28 08:48:37;;;;;;;2.53;0.80;;;;;10.50;103293.00;;;;5043299;28;20413;-82
2022/01/28 08:51:05;;;;;;;1.98;0.73;;;;;10.60;103289.00;;;;5041748;28;20191;-80
2022/01/28 08:53:33;;;;;;;4.20;0.65;;;;;10.70;103281.00;;;;5039144;28;20540;-80
2022/01/28 08:56:00;;;;;;;2.08;0.57;;;;;10.80;103290.00;;;;5046134;28;20623;-81
2022/01/28 08:58:28;;;;;;;2.15;0.98;;;;;10.90;103294.00;;;;5042754;28;20374;-80
2022/01/28 09:00:56;;;;;;;3.00;0.95;;;;;10.90;103295.00;;;;5039334;28;20219;-81
2022/01/28 09:03:23;;;;;;;3.90;1.33;;;;;11.10;103295.00;;;;5037026;28;20219;-81
2022/01/28 09:05:51;;;;;;;3.85;1.15;;;;;11.10;103296.00;;;;5037113;28;20709;-81
2022/01/28 09:08:18;;;;;;;3.85;0.80;;;;;11.20;103295.00;;;;5039237;28;20200;-80
2022/01/28 09:10:56;;;;;;;3.33;0.80;;;;;11.30;103301.00;;;;5043214;28;20284;-80
2022/01/28 09:13:24;;;;;;;2.70;0.80;;;;;11.40;103303.00;;;;5031287;28;20612;-80
2022/01/28 09:15:55;;;;;;;6.20;1.33;;;;;11.40;103306.00;;;;5032290;28;20192;-80
2022/01/28 09:18:23;;;;;;;7.15;1.40;;;;;11.50;103304.00;;;;5041788;28;20692;-80
2022/01/28 09:20:51;;;;;;;1.55;0.80;;;;;11.60;103293.00;;;;5043682;28;20203;-82
2022/01/28 09:23:19;;;;;;;5.97;1.33;;;;;11.70;103305.00;;;;5035962;28;20224;-83
2022/01/28 09:25:46;;;;;;;3.95;1.38;;;;;11.80;103308.00;;;;5049557;28;20192;-84
2022/01/28 09:28:14;;;;;;;2.92;0.90;;;;;11.90;103307.00;;;;5046635;28;20287;-82
2022/01/28 09:30:41;;;;;;;2.45;0.85;;;;;12.00;103302.00;;;;5039945;28;20200;-82
2022/01/28 09:33:10;;;;;;;7.10;1.20;;;;;12.10;103313.00;;;;5050087;28;20202;-83
2022/01/28 09:35:37;;;;;;;2.83;0.90;;;;;12.20;103323.00;;;;5041358;28;20195;-82
2022/01/28 09:38:06;;;;;;;5.40;1.02;;;;;12.20;103314.00;;;;5039479;28;20315;-85
2022/01/28 09:40:33;;;;;;;2.95;0.77;;;;;12.30;103315.00;;;;5037178;28;20200;-82
2022/01/28 09:43:04;;;;;;;3.75;1.05;;;;;12.40;103325.00;;;;5042951;28;20215;-83
2022/01/28 09:45:31;;;;;;;4.43;1.23;;;;;12.40;103330.00;;;;5047830;28;20203;-83
2022/01/28 09:47:59;;;;;;;3.65;0.88;;;;;12.50;103330.00;;;;5032967;28;20280;-85
2022/01/28 09:50:30;;;;;;;5.80;1.60;;;;;12.50;103314.00;;;;5049981;28;20637;-86
2022/01/28 09:52:58;;;;;;;5.53;1.15;;;;;12.60;103307.00;;;;5035025;28;20195;-85
2022/01/28 09:55:27;;;;;;;3.45;1.13;;;;;12.60;103308.00;;;;5042594;28;20635;-85
2022/01/28 09:57:57;;;;;;;3.17;1.05;;;;;12.60;103317.00;;;;5037139;28;20232;-84
2022/01/28 10:00:25;;;;;;;4.45;1.13;;;;;12.70;103307.00;;;;5028976;28;20196;-85
2022/01/28 10:02:55;;;;;;;3.40;0.80;;;;;12.70;103313.00;;;;5037444;28;20260;-85
2022/01/28 10:05:26;;;;;;;4.63;1.15;;;;;12.70;103313.00;;;;5034482;28;20204;-84
2022/01/28 10:08:19;;;;;;;3.13;0.80;;;;;12.60;103309.00;;;;5037014;28;20211;-84
2022/01/28 10:10:54;;;;;;;3.08;0.93;;;;;12.70;103315.00;;;;5022802;28;20192;-86
2022/01/28 10:13:28;;;;;;;3.03;0.98;;;;;12.80;103323.00;;;;5040526;28;20199;-85
2022/01/28 10:16:04;;;;;;;4.78;0.95;;;;;12.80;103323.00;;;;5033081;28;20203;-83
2022/01/28 10:18:43;;;;;;;5.53;1.02;;;;;12.80;103334.00;;;;5034595;28;20200;-85
2022/01/28 10:21:29;;;;;;;5.10;0.75;;;;;12.90;103334.00;;;;5029867;28;20204;-85
2022/01/28 10:24:13;;;;;;;6.00;1.90;;;;;12.90;103339.00;;;;5029644;28;20216;-85
2022/01/28 10:26:44;;;;;;;1.92;0.55;;;;;13.00;103339.00;;;;5029958;28;20666;-86
2022/01/28 10:29:14;;;;;;;6.00;1.02;;;;;13.10;103343.00;;;;5030157;28;20208;-86
2022/01/28 10:31:45;;;;;;;7.78;1.27;;;;;13.20;103337.00;;;;5029427;28;20650;-85
2022/01/28 10:34:15;;;;;;;2.67;0.68;;;;;13.30;103324.00;;;;5036181;28;20200;-87
2022/01/28 10:36:43;;;;;;;7.88;1.35;;;;;13.40;103336.00;;;;5039192;28;20699;-86
2022/01/28 10:39:21;;;;;;;4.03;0.75;;;;;13.30;103348.00;;;;5038888;28;20196;-86
2022/01/28 10:41:59;;;;;;;6.28;1.20;;;;;13.40;103344.00;;;;5044189;28;20215;-86
2022/01/28 10:44:28;;;;;;;3.42;0.90;;;;;13.50;103330.00;;;;5043310;28;20199;-85
2022/01/28 10:47:01;;;;;;;3.65;0.80;;;;;13.50;103338.00;;;;5039651;28;20740;-85
2022/01/28 10:49:31;;;;;;;3.97;0.98;;;;;13.60;103334.00;;;;5042013;28;20362;-85
2022/01/28 10:52:06;;;;;;;4.50;0.90;;;;;13.60;103332.00;;;;5034517;28;20204;-85
2022/01/28 10:54:36;;;;;;;4.97;0.88;;;;;13.70;103329.00;;;;5039856;28;20609;-84
2022/01/28 10:57:06;;;;;;;2.40;0.82;;;;;13.80;103331.00;;;;5039379;28;20226;-86
2022/01/28 10:59:35;;;;;;;6.38;1.38;;;;;13.90;103330.00;;;;5037222;28;20207;-85
2022/01/28 11:02:03;;;;;;;3.03;0.85;;;;;13.90;103325.00;;;;5048486;28;20219;-85
2022/01/28 11:04:31;;;;;;;2.13;0.43;;;;;14.00;103316.00;;;;5036283;28;20218;-88
2022/01/28 11:07:00;;;;;;;2.97;0.50;;;;;14.00;103315.00;;;;5031590;28;20223;-83
2022/01/28 11:09:28;;;;;;;1.15;0.57;;;;;14.10;103305.00;;;;5035260;28;20193;-84
2022/01/28 11:11:57;;;;;;;3.72;0.88;;;;;14.10;103296.00;;;;5036796;28;20197;-84
2022/01/28 11:14:25;;;;;;;4.70;1.08;;;;;14.10;103298.00;;;;5036495;28;20191;-84
2022/01/28 11:16:53;;;;;;;3.70;0.80;;;;;14.20;103303.00;;;;5040942;28;20223;-83
2022/01/28 11:19:23;;;;;;;2.60;0.80;;;;;14.30;103293.00;;;;5031003;28;20593;-85
2022/01/28 11:22:00;;;;;;;3.63;0.70;;;;;14.30;103286.00;;;;5034427;28;20666;-84
2022/01/28 11:24:42;;;;;;;2.88;0.52;;;;;14.40;103283.00;;;;5038130;28;20215;-85
2022/01/28 11:27:14;;;;;;;2.17;0.60;;;;;14.50;103287.00;;;;5041688;28;20202;-85
2022/01/28 11:29:42;;;;;;;2.78;0.57;;;;;14.50;103286.00;;;;5035065;28;20207;-85
2022/01/28 11:32:15;;;;;;;2.33;0.93;;;;;14.60;103291.00;;;;5044293;28;20282;-84
2022/01/28 11:34:58;;;;;;;2.60;0.60;;;;;14.60;103289.00;;;;5030045;28;20672;-83
2022/01/28 11:37:27;;;;;;;6.25;1.02;;;;;14.60;103278.00;;;;5040963;28;20842;-85
2022/01/28 11:39:55;;;;;;;1.52;0.30;;;;;14.70;103282.00;;;;5042114;28;20199;-84
2022/01/28 11:42:29;;;;;;;5.43;1.17;;;;;14.70;103276.00;;;;5031832;28;20196;-83
2022/01/28 11:44:59;;;;;;;3.15;0.50;;;;;14.80;103279.00;;;;5046565;28;20214;-83
2022/01/28 11:47:27;;;;;;;4.55;0.70;;;;;14.80;103278.00;;;;5046578;28;20249;-83
2022/01/28 11:49:57;;;;;;;3.00;1.02;;;;;14.80;103272.00;;;;5046675;28;20195;-83
2022/01/28 11:52:27;;;;;;;4.30;0.90;;;;;14.90;103276.00;;;;5045863;28;20630;-83
2022/01/28 11:54:55;;;;;;;12.63;0.95;;;;;14.80;103273.00;;;;5042438;28;20204;-83
2022/01/28 11:57:27;;;;;;;4.05;0.50;;;;;14.80;103269.00;;;;5035380;28;20748;-83
2022/01/28 12:00:25;;;;;;;6.90;0.80;;;;;14.80;103262.00;;;;5038214;28;20774;-83
2022/01/28 12:02:54;;;;;;;1.90;0.40;;;;;14.90;103256.00;;;;5031695;28;20223;-83
2022/01/28 12:06:03;;;;;;;3.28;0.40;;;;;14.90;103248.00;;;;5033422;28;20552;-83
2022/01/28 12:08:32;;;;;;;6.00;0.75;;;;;15.10;103247.00;;;;5046633;28;20743;-83
2022/01/28 12:11:02;;;;;;;4.22;0.77;;;;;15.10;103232.00;;;;5046393;28;20610;-83
2022/01/28 12:13:48;;;;;;;3.70;0.90;;;;;15.10;103241.00;;;;5036246;28;20208;-82
2022/01/28 12:16:27;;;;;;;3.17;0.45;;;;;15.20;103237.00;;;;5043490;28;20585;-83
2022/01/28 12:18:56;;;;;;;3.80;0.75;;;;;15.30;103232.00;;;;5036907;28;20223;-83
2022/01/28 12:21:25;;;;;;;7.45;0.82;;;;;15.30;103238.00;;;;5049840;28;20195;-83
2022/01/28 12:23:54;;;;;;;1.95;0.30;;;;;15.40;103235.00;;;;5048853;28;20214;-83
2022/01/28 12:26:22;;;;;;;2.22;0.60;;;;;15.40;103232.00;;;;5049716;28;20673;-83
2022/01/28 12:28:54;;;;;;;3.35;0.70;;;;;15.30;103230.00;;;;5042134;28;20310;-83
2022/01/28 12:31:24;;;;;;;2.30;0.65;;;;;15.30;103219.00;;;;5041047;28;20673;-83
2022/01/28 12:33:53;;;;;;;1.88;0.47;;;;;15.30;103222.00;;;;5038596;28;20194;-83
2022/01/28 12:36:23;;;;;;;4.20;0.70;;;;;15.30;103214.00;;;;5042057;28;20200;-83
2022/01/28 12:39:06;;;;;;;2.85;0.43;;;;;15.30;103209.00;;;;5038238;28;20230;-83
2022/01/28 12:41:41;;;;;;;7.85;0.50;;;;;15.30;103211.00;;;;5045237;28;20229;-82
2022/01/28 12:44:11;;;;;;;2.38;0.77;;;;;15.20;103208.00;;;;5046703;28;20274;-85
2022/01/28 12:46:39;;;;;;;1.80;0.82;;;;;15.20;103212.00;;;;5041366;28;20208;-85
2022/01/28 12:49:10;;;;;;;1.42;0.20;;;;;15.20;103201.00;;;;5034878;28;20208;-83
2022/01/28 12:51:41;;;;;;;3.47;0.35;;;;;15.20;103214.00;;;;5039186;28;20709;-84
2022/01/28 12:54:08;;;;;;;2.15;0.45;;;;;15.30;103206.00;;;;5049639;28;20196;-83
2022/01/28 12:56:38;;;;;;;2.45;0.25;;;;;15.30;103190.00;;;;5049044;28;20200;-84
2022/01/28 12:59:06;;;;;;;4.68;0.60;;;;;15.30;103181.00;;;;5040250;28;20216;-84
2022/01/28 13:01:35;;;;;;;2.13;0.30;;;;;15.30;103179.00;;;;5044085;28;20638;-84
2022/01/28 13:04:09;;;;;;;3.85;0.68;;;;;15.40;103174.00;;;;5037349;28;20212;-85
2022/01/28 13:06:54;;;;;;;4.07;0.40;;;;;15.40;103175.00;;;;5042121;28;20577;-84
2022/01/28 13:09:23;;;;;;;2.65;0.73;;;;;15.50;103166.00;;;;5047083;28;20226;-83
2022/01/28 13:11:52;;;;;;;2.92;0.63;;;;;15.60;103162.00;;;;5051197;28;20196;-82
2022/01/28 13:14:22;;;;;;;2.47;0.63;;;;;15.70;103165.00;;;;5046421;28;20195;-85
2022/01/28 13:16:51;;;;;;;2.90;0.60;;;;;15.90;103163.00;;;;5034878;28;20204;-83